Time;durP1;ratioP1;P1;durP2;ratioP2;P2;SDS_P1;SDS_P2;PMS_P1;PMS_P2;Temp;Humidity;BMP_temperature;BMP_pressure;BME280_temperature;BME280_humidity;BME280_pressure;Samples;Min_cycle;Max_cycle;Signal;HPM_P1;HPM_P2
2023/10/03 00:01:42;;;;;;;8.83;7.33;;;;;;;;;;5093567;28;20540;-63
2023/10/03 00:04:10;;;;;;;9.90;7.40;;;;;;;;;;5093455;28;20443;-63
2023/10/03 00:06:38;;;;;;;10.00;7.47;;;;;;;;;;5093660;28;20442;-63
2023/10/03 00:09:06;;;;;;;10.10;6.70;;;;;;;;;;5093575;28;20450;-63
2023/10/03 00:11:33;;;;;;;11.87;8.10;;;;;;;;;;5093585;28;20446;-63
2023/10/03 00:14:03;;;;;;;11.80;8.50;;;;;;;;;;5093414;28;20451;-63
2023/10/03 00:16:33;;;;;;;8.10;7.30;;;;;;;;;;5092802;28;20476;-63
2023/10/03 00:19:00;;;;;;;9.17;7.10;;;;;;;;;;5093491;28;20561;-63
2023/10/03 00:21:27;;;;;;;8.60;7.70;;;;;;;;;;5093458;28;20446;-63
2023/10/03 00:23:54;;;;;;;8.80;7.43;;;;;;;;;;5093343;28;20473;-63
2023/10/03 00:26:22;;;;;;;9.70;7.50;;;;;;;;;;5093301;28;20442;-63
2023/10/03 00:28:49;;;;;;;7.93;7.13;;;;;;;;;;5093095;28;20467;-63
2023/10/03 00:31:16;;;;;;;10.03;8.33;;;;;;;;;;5093101;28;20478;-63
2023/10/03 00:33:44;;;;;;;9.67;7.47;;;;;;;;;;5093358;28;20537;-63
2023/10/03 00:36:16;;;;;;;10.13;7.90;;;;;;;;;;5093237;28;20601;-63
2023/10/03 00:38:44;;;;;;;8.87;7.90;;;;;;;;;;5093127;28;20439;-63
2023/10/03 00:41:12;;;;;;;9.00;7.77;;;;;;;;;;5093108;28;20533;-63
2023/10/03 00:43:39;;;;;;;11.20;7.23;;;;;;;;;;5093102;28;20443;-63
2023/10/03 00:46:07;;;;;;;9.93;7.60;;;;;;;;;;5093227;28;20439;-63
2023/10/03 00:48:34;;;;;;;8.67;7.60;;;;;;;;;;5093129;28;20450;-63
2023/10/03 00:51:03;;;;;;;10.37;8.30;;;;;;;;;;5093125;28;20446;-63
2023/10/03 00:53:32;;;;;;;9.47;7.73;;;;;;;;;;5092991;28;20449;-63
2023/10/03 00:56:02;;;;;;;7.93;7.13;;;;;;;;;;5092944;28;20439;-63
2023/10/03 00:58:32;;;;;;;8.70;7.80;;;;;;;;;;5093073;28;20488;-63
2023/10/03 01:01:00;;;;;;;9.03;7.20;;;;;;;;;;5093026;28;20487;-63
2023/10/03 01:03:28;;;;;;;10.30;7.13;;;;;;;;;;5092994;28;20465;-63
2023/10/03 01:05:57;;;;;;;10.57;8.07;;;;;;;;;;5092863;28;20453;-63
2023/10/03 01:08:26;;;;;;;7.73;6.93;;;;;;;;;;5092954;28;20529;-63
2023/10/03 01:10:54;;;;;;;7.43;6.73;;;;;;;;;;5092554;28;20537;-63
2023/10/03 01:13:24;;;;;;;10.40;6.97;;;;;;;;;;5092885;28;20900;-63
2023/10/03 01:15:52;;;;;;;10.60;7.70;;;;;;;;;;5092849;28;20806;-63
2023/10/03 01:18:20;;;;;;;9.77;8.03;;;;;;;;;;5092865;28;20443;-63
2023/10/03 01:20:49;;;;;;;13.03;7.30;;;;;;;;;;5092643;28;20513;-63
2023/10/03 01:23:19;;;;;;;8.07;7.20;;;;;;;;;;5092587;28;20443;-63
2023/10/03 01:25:46;;;;;;;11.17;8.27;;;;;;;;;;5092796;28;20442;-63
2023/10/03 01:28:13;;;;;;;9.03;6.97;;;;;;;;;;5093439;28;20557;-63
2023/10/03 01:30:41;;;;;;;9.87;7.13;;;;;;;;;;5096416;28;20446;-63
2023/10/03 01:33:08;;;;;;;8.17;6.90;;;;;;;;;;5096471;28;20461;-63
2023/10/03 01:35:35;;;;;;;12.60;7.07;;;;;;;;;;5096176;28;20537;-63
2023/10/03 01:38:04;;;;;;;7.80;7.00;;;;;;;;;;5096501;28;20531;-63
2023/10/03 01:40:32;;;;;;;8.93;7.53;;;;;;;;;;5096271;28;20523;-63
2023/10/03 01:42:59;;;;;;;9.40;7.03;;;;;;;;;;5096360;28;20486;-63
2023/10/03 01:45:27;;;;;;;8.43;6.93;;;;;;;;;;5096254;28;20492;-63
2023/10/03 01:47:58;;;;;;;8.93;6.60;;;;;;;;;;5096158;28;20534;-63
2023/10/03 01:50:26;;;;;;;8.37;7.03;;;;;;;;;;5096054;28;20450;-63
2023/10/03 01:52:53;;;;;;;11.63;7.40;;;;;;;;;;5096367;28;20453;-63
2023/10/03 01:55:21;;;;;;;12.90;7.37;;;;;;;;;;5096198;28;20442;-63
2023/10/03 01:57:50;;;;;;;8.03;6.73;;;;;;;;;;5096084;28;20454;-63
2023/10/03 02:00:25;;;;;;;9.63;6.70;;;;;;;;;;5095865;28;20985;-65
2023/10/03 02:02:52;;;;;;;7.57;6.60;;;;;;;;;;5095828;28;21005;-63
2023/10/03 02:05:21;;;;;;;9.70;6.70;;;;;;;;;;5096045;28;20504;-63
2023/10/03 02:07:48;;;;;;;11.23;7.53;;;;;;;;;;5095942;28;20447;-63
2023/10/03 02:10:17;;;;;;;9.80;7.17;;;;;;;;;;5095882;28;20885;-63
2023/10/03 02:12:48;;;;;;;7.67;6.80;;;;;;;;;;5095692;28;20449;-62
2023/10/03 02:15:20;;;;;;;11.37;7.00;;;;;;;;;;5095599;28;20809;-63
2023/10/03 02:17:49;;;;;;;9.10;6.77;;;;;;;;;;5095809;28;20446;-63
2023/10/03 02:20:20;;;;;;;7.10;6.33;;;;;;;;;;5095579;28;20535;-63
2023/10/03 02:22:53;;;;;;;7.97;6.63;;;;;;;;;;5095686;28;20531;-63
2023/10/03 02:25:20;;;;;;;8.40;7.00;;;;;;;;;;5095763;28;20434;-63
2023/10/03 02:27:48;;;;;;;8.00;6.03;;;;;;;;;;5095705;28;20525;-63
2023/10/03 02:30:23;;;;;;;12.40;7.20;;;;;;;;;;5095592;28;20450;-63
2023/10/03 02:32:52;;;;;;;9.37;6.37;;;;;;;;;;5095258;28;20453;-63
2023/10/03 02:35:19;;;;;;;10.00;6.83;;;;;;;;;;5095297;28;20453;-63
2023/10/03 02:37:47;;;;;;;9.93;7.50;;;;;;;;;;5095216;28;20489;-63
2023/10/03 02:40:22;;;;;;;9.63;6.27;;;;;;;;;;5094495;28;20470;-63
2023/10/03 02:42:49;;;;;;;5.77;4.97;;;;;;;;;;5095312;28;20449;-63
2023/10/03 02:45:17;;;;;;;10.10;6.47;;;;;;;;;;5095212;28;20450;-63
2023/10/03 02:47:44;;;;;;;9.57;6.20;;;;;;;;;;5095025;28;20438;-63
2023/10/03 02:50:13;;;;;;;8.50;6.30;;;;;;;;;;5094987;28;20533;-63
2023/10/03 02:52:40;;;;;;;8.03;5.90;;;;;;;;;;5094883;28;20447;-63
2023/10/03 02:55:08;;;;;;;10.23;6.70;;;;;;;;;;5095095;28;20445;-63
2023/10/03 02:57:38;;;;;;;8.90;7.17;;;;;;;;;;5094949;28;20450;-63
2023/10/03 03:00:11;;;;;;;11.83;7.07;;;;;;;;;;5094823;28;20573;-63
2023/10/03 03:02:38;;;;;;;11.97;7.17;;;;;;;;;;5094765;28;20485;-64
2023/10/03 03:05:09;;;;;;;8.80;6.60;;;;;;;;;;5094706;28;20878;-63
2023/10/03 03:07:37;;;;;;;9.10;6.73;;;;;;;;;;5094586;28;20442;-63
2023/10/03 03:10:05;;;;;;;6.90;6.10;;;;;;;;;;5094898;28;20445;-63
2023/10/03 03:12:35;;;;;;;10.40;6.10;;;;;;;;;;5094709;28;20533;-63
2023/10/03 03:15:04;;;;;;;9.57;7.10;;;;;;;;;;5094612;28;20438;-63
2023/10/03 03:17:32;;;;;;;9.97;7.23;;;;;;;;;;5094473;28;20488;-63
2023/10/03 03:20:02;;;;;;;11.00;6.87;;;;;;;;;;5094199;28;20470;-63
2023/10/03 03:22:29;;;;;;;7.83;6.40;;;;;;;;;;5094508;28;20446;-63
2023/10/03 03:24:58;;;;;;;7.67;6.30;;;;;;;;;;5094384;28;20474;-63
2023/10/03 03:27:26;;;;;;;8.00;6.70;;;;;;;;;;5094393;28;20959;-63
2023/10/03 03:30:17;;;;;;;7.80;5.97;;;;;;;;;;5093996;28;21012;-63
2023/10/03 03:32:45;;;;;;;8.97;7.50;;;;;;;;;;5094383;28;20439;-63
2023/10/03 03:35:12;;;;;;;11.13;7.43;;;;;;;;;;5094279;28;20443;-63
2023/10/03 03:37:40;;;;;;;8.50;7.10;;;;;;;;;;5094189;28;20529;-63
2023/10/03 03:40:21;;;;;;;10.57;7.03;;;;;;;;;;5093959;28;20549;-63
2023/10/03 03:42:48;;;;;;;10.70;7.53;;;;;;;;;;5093933;28;20492;-63
2023/10/03 03:45:17;;;;;;;9.43;7.40;;;;;;;;;;5094128;28;20520;-63
2023/10/03 03:47:44;;;;;;;12.47;7.27;;;;;;;;;;5094048;28;20856;-63
2023/10/03 03:50:11;;;;;;;16.10;8.20;;;;;;;;;;5093618;28;20856;-63
2023/10/03 03:52:40;;;;;;;10.83;7.67;;;;;;;;;;5093446;28;20525;-63
2023/10/03 03:55:11;;;;;;;14.13;8.33;;;;;;;;;;5093812;28;20442;-62
2023/10/03 03:57:38;;;;;;;12.80;8.23;;;;;;;;;;5093728;28;20797;-62
2023/10/03 04:00:19;;;;;;;12.40;8.13;;;;;;;;;;5093691;28;20561;-62
2023/10/03 04:02:48;;;;;;;12.73;8.63;;;;;;;;;;5093679;28;20446;-62
2023/10/03 04:05:17;;;;;;;12.17;8.37;;;;;;;;;;5093566;28;20508;-62
2023/10/03 04:07:45;;;;;;;11.30;8.00;;;;;;;;;;5093407;28;20438;-63
2023/10/03 04:10:13;;;;;;;10.70;8.10;;;;;;;;;;5093518;28;20453;-63
2023/10/03 04:12:42;;;;;;;13.87;8.37;;;;;;;;;;5093309;28;21008;-63
2023/10/03 04:15:12;;;;;;;12.13;8.20;;;;;;;;;;5093556;28;20439;-63
2023/10/03 04:17:39;;;;;;;11.30;8.40;;;;;;;;;;5093681;28;20450;-63
2023/10/03 04:20:13;;;;;;;15.13;8.23;;;;;;;;;;5093309;28;20450;-63
2023/10/03 04:22:41;;;;;;;17.07;8.83;;;;;;;;;;5093315;28;20443;-63
2023/10/03 04:25:19;;;;;;;11.13;7.27;;;;;;;;;;5093516;28;20884;-63
2023/10/03 04:27:48;;;;;;;17.03;8.40;;;;;;;;;;5093245;28;20465;-63
2023/10/03 04:30:15;;;;;;;10.80;7.73;;;;;;;;;;5093244;28;20448;-63
2023/10/03 04:32:42;;;;;;;11.23;8.20;;;;;;;;;;5093154;28;20439;-63
2023/10/03 04:35:12;;;;;;;11.93;8.60;;;;;;;;;;5093247;28;20483;-63
2023/10/03 04:37:40;;;;;;;11.90;8.10;;;;;;;;;;5093287;28;20443;-63
2023/10/03 04:40:13;;;;;;;13.90;8.90;;;;;;;;;;5093113;28;20438;-63
2023/10/03 04:42:40;;;;;;;15.03;9.90;;;;;;;;;;5093299;28;20529;-63
2023/10/03 04:45:10;;;;;;;11.77;7.97;;;;;;;;;;5093236;28;20448;-63
2023/10/03 04:47:38;;;;;;;14.80;8.80;;;;;;;;;;5092988;28;20521;-63
2023/10/03 04:50:06;;;;;;;13.10;8.53;;;;;;;;;;5093172;28;20442;-63
2023/10/03 04:52:32;;;;;;;13.43;8.80;;;;;;;;;;5093101;28;20442;-63
2023/10/03 04:55:00;;;;;;;14.17;9.30;;;;;;;;;;5093045;28;20862;-63
2023/10/03 04:57:27;;;;;;;12.67;8.43;;;;;;;;;;5092936;28;20844;-64
2023/10/03 04:59:56;;;;;;;15.33;9.10;;;;;;;;;;5092922;28;20446;-63
2023/10/03 05:02:24;;;;;;;10.97;8.30;;;;;;;;;;5094355;28;20525;-63
2023/10/03 05:04:51;;;;;;;11.47;7.63;;;;;;;;;;5097182;28;20816;-63
2023/10/03 05:07:18;;;;;;;11.93;7.50;;;;;;;;;;5097041;28;20479;-63
2023/10/03 05:09:45;;;;;;;13.60;8.40;;;;;;;;;;5096961;28;20531;-63
2023/10/03 05:12:12;;;;;;;14.40;8.40;;;;;;;;;;5096800;28;20542;-63
2023/10/03 05:14:41;;;;;;;13.10;8.37;;;;;;;;;;5096736;28;20449;-63
2023/10/03 05:17:07;;;;;;;14.23;8.20;;;;;;;;;;5096921;28;20457;-63
2023/10/03 05:19:37;;;;;;;14.30;7.97;;;;;;;;;;5096675;28;20988;-63
2023/10/03 05:22:04;;;;;;;14.20;8.60;;;;;;;;;;5096771;28;20573;-63
2023/10/03 05:24:32;;;;;;;11.00;7.87;;;;;;;;;;5096939;28;20442;-63
2023/10/03 05:26:59;;;;;;;14.40;8.30;;;;;;;;;;5096492;28;20450;-63
2023/10/03 05:29:27;;;;;;;13.63;8.40;;;;;;;;;;5096579;28;20498;-63
2023/10/03 05:31:54;;;;;;;15.10;8.47;;;;;;;;;;5096438;28;20452;-63
2023/10/03 05:34:21;;;;;;;11.10;8.20;;;;;;;;;;5096495;28;20447;-63
2023/10/03 05:36:49;;;;;;;13.90;8.43;;;;;;;;;;5096443;28;20446;-63
2023/10/03 05:39:16;;;;;;;11.97;7.60;;;;;;;;;;5096368;28;20868;-64
2023/10/03 05:41:43;;;;;;;13.33;8.60;;;;;;;;;;5096104;28;20569;-63
2023/10/03 05:44:12;;;;;;;11.27;8.30;;;;;;;;;;5096441;28;20485;-63
2023/10/03 05:46:39;;;;;;;13.13;7.73;;;;;;;;;;5096340;28;20446;-63
2023/10/03 05:49:06;;;;;;;8.40;7.07;;;;;;;;;;5096301;28;20458;-63
2023/10/03 05:51:34;;;;;;;13.87;8.10;;;;;;;;;;5096047;28;20450;-63
2023/10/03 05:54:04;;;;;;;11.53;7.77;;;;;;;;;;5096035;28;20446;-63
2023/10/03 05:56:31;;;;;;;12.90;7.90;;;;;;;;;;5096170;28;20434;-63
2023/10/03 05:59:01;;;;;;;12.73;7.83;;;;;;;;;;5096136;28;20445;-63
2023/10/03 06:01:28;;;;;;;12.20;8.00;;;;;;;;;;5095941;28;20531;-63
2023/10/03 06:03:56;;;;;;;14.30;7.37;;;;;;;;;;5095907;28;20533;-63
2023/10/03 06:06:23;;;;;;;13.43;7.93;;;;;;;;;;5095883;28;20786;-63
2023/10/03 06:08:50;;;;;;;11.57;7.93;;;;;;;;;;5095769;28;20533;-64
2023/10/03 06:11:19;;;;;;;13.30;7.93;;;;;;;;;;5096220;28;20503;-63
2023/10/03 06:13:46;;;;;;;12.63;7.13;;;;;;;;;;5094789;28;21044;-63
2023/10/03 06:16:14;;;;;;;11.67;6.73;;;;;;;;;;5095676;28;20529;-62
2023/10/03 06:18:42;;;;;;;11.60;7.17;;;;;;;;;;5095664;28;20871;-63
2023/10/03 06:21:09;;;;;;;14.23;8.30;;;;;;;;;;5095391;28;20484;-63
2023/10/03 06:23:37;;;;;;;14.60;8.40;;;;;;;;;;5095677;28;20538;-62
2023/10/03 06:26:04;;;;;;;11.97;7.70;;;;;;;;;;5095366;28;20446;-63
2023/10/03 06:28:32;;;;;;;12.80;8.53;;;;;;;;;;5095387;28;20474;-63
2023/10/03 06:30:59;;;;;;;13.03;7.83;;;;;;;;;;5095450;28;20473;-63
2023/10/03 06:33:27;;;;;;;16.47;7.80;;;;;;;;;;5095394;28;20530;-62
2023/10/03 06:35:54;;;;;;;12.03;7.80;;;;;;;;;;5095315;28;20446;-63
2023/10/03 06:38:23;;;;;;;11.00;8.13;;;;;;;;;;5095208;28;21001;-63
2023/10/03 06:40:50;;;;;;;12.07;8.03;;;;;;;;;;5095252;28;20492;-63
2023/10/03 06:43:18;;;;;;;15.00;9.53;;;;;;;;;;5095116;28;20450;-63
2023/10/03 06:45:47;;;;;;;12.13;7.70;;;;;;;;;;5095117;28;20473;-63
2023/10/03 06:48:14;;;;;;;11.33;6.83;;;;;;;;;;5095027;28;20449;-63
2023/10/03 06:50:43;;;;;;;12.20;7.80;;;;;;;;;;5095217;28;20499;-63
2023/10/03 06:53:13;;;;;;;11.80;7.60;;;;;;;;;;5095098;28;20447;-63
2023/10/03 06:55:40;;;;;;;14.20;8.00;;;;;;;;;;5095007;28;20941;-63
2023/10/03 06:58:06;;;;;;;17.20;8.33;;;;;;;;;;5094808;28;20529;-63
2023/10/03 07:00:33;;;;;;;15.13;8.20;;;;;;;;;;5094721;28;21024;-63
2023/10/03 07:03:02;;;;;;;14.00;8.77;;;;;;;;;;5094523;28;20522;-63
2023/10/03 07:05:29;;;;;;;12.00;7.60;;;;;;;;;;5094788;28;20447;-63
2023/10/03 07:07:56;;;;;;;14.43;8.70;;;;;;;;;;5094796;28;20444;-63
2023/10/03 07:10:25;;;;;;;12.97;7.90;;;;;;;;;;5094884;28;20533;-63
2023/10/03 07:12:52;;;;;;;10.37;7.23;;;;;;;;;;5094493;28;21008;-63
2023/10/03 07:15:19;;;;;;;13.93;8.50;;;;;;;;;;5094420;28;20477;-63
2023/10/03 07:17:45;;;;;;;14.27;8.57;;;;;;;;;;5094626;28;20442;-63
2023/10/03 07:20:14;;;;;;;16.27;9.80;;;;;;;;;;5094533;28;20533;-63
2023/10/03 07:22:43;;;;;;;14.83;8.93;;;;;;;;;;5094295;28;20481;-63
2023/10/03 07:25:11;;;;;;;14.83;8.70;;;;;;;;;;5094309;28;20478;-63
2023/10/03 07:27:41;;;;;;;13.40;8.73;;;;;;;;;;5094141;28;20836;-63
2023/10/03 07:30:08;;;;;;;17.97;9.17;;;;;;;;;;5093989;28;20819;-63
2023/10/03 07:32:35;;;;;;;15.27;10.33;;;;;;;;;;5094250;28;20443;-63
2023/10/03 07:35:02;;;;;;;14.27;8.53;;;;;;;;;;5094226;28;21102;-63
2023/10/03 07:37:33;;;;;;;15.93;8.97;;;;;;;;;;5094153;28;20911;-63
2023/10/03 07:40:01;;;;;;;13.83;9.33;;;;;;;;;;5094083;28;20442;-63
2023/10/03 07:42:27;;;;;;;16.03;9.17;;;;;;;;;;5093865;28;20885;-63
2023/10/03 07:44:54;;;;;;;13.70;8.87;;;;;;;;;;5094144;28;20450;-63
2023/10/03 07:47:21;;;;;;;17.90;9.67;;;;;;;;;;5094032;28;20537;-63
2023/10/03 07:49:49;;;;;;;16.53;9.80;;;;;;;;;;5093944;28;20449;-63
2023/10/03 07:52:18;;;;;;;18.00;10.73;;;;;;;;;;5093607;28;20933;-62
2023/10/03 07:54:54;;;;;;;17.73;9.73;;;;;;;;;;5093646;28;20453;-62
2023/10/03 07:57:23;;;;;;;20.13;10.70;;;;;;;;;;5093919;28;20441;-62
2023/10/03 07:59:51;;;;;;;16.80;10.30;;;;;;;;;;5093774;28;20481;-63
2023/10/03 08:02:18;;;;;;;18.10;10.13;;;;;;;;;;5093330;28;20989;-63
2023/10/03 08:04:46;;;;;;;14.80;9.53;;;;;;;;;;5093618;28;20526;-63
2023/10/03 08:07:21;;;;;;;19.70;10.83;;;;;;;;;;5093417;28;20941;-63
2023/10/03 08:09:50;;;;;;;16.00;10.00;;;;;;;;;;5093432;28;20500;-63
2023/10/03 08:12:23;;;;;;;15.00;9.40;;;;;;;;;;5093779;28;20851;-63
2023/10/03 08:14:52;;;;;;;19.60;10.77;;;;;;;;;;5093534;28;20478;-63
2023/10/03 08:17:19;;;;;;;18.77;11.20;;;;;;;;;;5093441;28;20446;-63
2023/10/03 08:19:46;;;;;;;21.20;11.90;;;;;;;;;;5093235;28;20529;-63
2023/10/03 08:22:14;;;;;;;18.27;11.53;;;;;;;;;;5093239;28;20514;-63
2023/10/03 08:24:43;;;;;;;19.93;11.23;;;;;;;;;;5093354;28;20443;-63
2023/10/03 08:27:18;;;;;;;18.87;11.00;;;;;;;;;;5093524;28;20529;-63
2023/10/03 08:29:45;;;;;;;18.53;10.77;;;;;;;;;;5093266;28;20564;-63
2023/10/03 08:32:12;;;;;;;18.00;9.70;;;;;;;;;;5093210;28;20537;-63
2023/10/03 08:34:44;;;;;;;20.33;11.07;;;;;;;;;;5093052;28;20537;-63
2023/10/03 08:37:18;;;;;;;20.63;10.70;;;;;;;;;;5092836;28;20450;-63
2023/10/03 08:39:48;;;;;;;19.07;10.83;;;;;;;;;;5093228;28;20851;-63
2023/10/03 08:42:18;;;;;;;20.23;11.77;;;;;;;;;;5092956;28;20896;-63
2023/10/03 08:44:52;;;;;;;19.70;11.80;;;;;;;;;;5092933;28;20519;-64
2023/10/03 08:47:22;;;;;;;21.40;12.10;;;;;;;;;;5093275;28;20504;-63
2023/10/03 08:49:56;;;;;;;22.30;12.27;;;;;;;;;;5093086;28;20458;-63
2023/10/03 08:52:24;;;;;;;21.10;12.17;;;;;;;;;;5092950;28;20442;-63
2023/10/03 08:54:54;;;;;;;20.40;11.80;;;;;;;;;;5093122;28;20446;-63
2023/10/03 08:57:23;;;;;;;18.33;12.30;;;;;;;;;;5092864;28;20965;-64
2023/10/03 08:59:50;;;;;;;19.53;11.47;;;;;;;;;;5092733;28;20964;-63
2023/10/03 09:02:24;;;;;;;20.97;11.67;;;;;;;;;;5092868;28;20573;-63
2023/10/03 09:04:52;;;;;;;19.87;12.23;;;;;;;;;;5092990;28;20442;-63
2023/10/03 09:07:19;;;;;;;20.53;12.17;;;;;;;;;;5092861;28;20478;-63
2023/10/03 09:09:46;;;;;;;18.17;10.33;;;;;;;;;;5092819;28;20504;-63
2023/10/03 09:12:13;;;;;;;18.90;10.83;;;;;;;;;;5092914;28;20447;-64
2023/10/03 09:14:41;;;;;;;19.37;11.00;;;;;;;;;;5092854;28;20442;-64
2023/10/03 09:17:10;;;;;;;20.17;11.70;;;;;;;;;;5092809;28;20442;-64
2023/10/03 09:19:45;;;;;;;19.17;10.77;;;;;;;;;;5092779;28;20442;-63
2023/10/03 09:22:15;;;;;;;18.73;10.80;;;;;;;;;;5092564;28;20465;-63
2023/10/03 09:24:44;;;;;;;21.50;11.00;;;;;;;;;;5092601;28;20453;-63
2023/10/03 09:27:17;;;;;;;19.20;11.50;;;;;;;;;;5092731;28;20454;-63
2023/10/03 09:29:49;;;;;;;21.33;12.20;;;;;;;;;;5092461;28;20463;-63
2023/10/03 09:32:17;;;;;;;17.40;9.90;;;;;;;;;;5092638;28;20863;-63
2023/10/03 09:34:44;;;;;;;14.93;10.63;;;;;;;;;;5092581;28;20450;-64
2023/10/03 09:37:11;;;;;;;21.00;10.10;;;;;;;;;;5092531;28;20442;-63
2023/10/03 09:39:48;;;;;;;22.50;10.83;;;;;;;;;;5092690;28;20466;-63
2023/10/03 09:42:16;;;;;;;17.70;10.60;;;;;;;;;;5092385;28;20976;-63
2023/10/03 09:44:45;;;;;;;18.67;10.43;;;;;;;;;;5092570;28;20449;-64
2023/10/03 09:47:13;;;;;;;15.13;10.40;;;;;;;;;;5092490;28;20474;-64
2023/10/03 09:49:42;;;;;;;19.10;10.93;;;;;;;;;;5093971;28;20457;-64
2023/10/03 09:52:17;;;;;;;18.83;11.30;;;;;;;;;;5096166;28;20450;-64
2023/10/03 09:54:43;;;;;;;19.40;10.40;;;;;;;;;;5096234;28;20453;-64
2023/10/03 09:57:16;;;;;;;18.73;10.77;;;;;;;;;;5096041;28;20530;-64
2023/10/03 09:59:46;;;;;;;18.70;10.60;;;;;;;;;;5095829;28;20533;-64
2023/10/03 10:02:14;;;;;;;18.83;10.50;;;;;;;;;;5095859;28;20845;-64
2023/10/03 10:04:41;;;;;;;18.43;10.30;;;;;;;;;;5096008;28;20446;-64
2023/10/03 10:07:16;;;;;;;19.97;10.40;;;;;;;;;;5095819;28;20451;-64
2023/10/03 10:09:47;;;;;;;15.23;10.27;;;;;;;;;;5095832;28;20496;-64
2023/10/03 10:12:15;;;;;;;19.03;12.07;;;;;;;;;;5095563;28;20546;-64
2023/10/03 10:15:02;;;;;;;17.63;11.17;;;;;;;;;;5095612;28;20443;-64
2023/10/03 10:17:44;;;;;;;20.97;11.37;;;;;;;;;;5095980;28;20443;-64
2023/10/03 10:20:13;;;;;;;17.70;10.10;;;;;;;;;;5095667;28;20478;-64
2023/10/03 10:23:01;;;;;;;17.20;11.00;;;;;;;;;;5095723;28;20479;-64
2023/10/03 10:25:28;;;;;;;16.27;10.70;;;;;;;;;;5095542;28;20828;-64
2023/10/03 10:28:03;;;;;;;16.40;9.90;;;;;;;;;;5095631;28;20449;-64
2023/10/03 10:30:34;;;;;;;17.53;10.23;;;;;;;;;;5095489;28;20452;-64
2023/10/03 10:33:23;;;;;;;17.80;10.30;;;;;;;;;;5095367;28;20876;-64
2023/10/03 10:35:51;;;;;;;16.00;9.90;;;;;;;;;;5095503;28;20517;-64
2023/10/03 10:38:17;;;;;;;16.60;9.87;;;;;;;;;;5095269;28;20538;-64
2023/10/03 10:40:59;;;;;;;13.60;9.40;;;;;;;;;;5095298;28;20474;-64
2023/10/03 10:43:28;;;;;;;17.93;9.87;;;;;;;;;;5094760;28;20516;-62
2023/10/03 10:46:10;;;;;;;15.83;10.70;;;;;;;;;;5094964;28;20446;-64
2023/10/03 10:48:43;;;;;;;19.00;10.07;;;;;;;;;;5095126;28;20874;-62
2023/10/03 10:51:12;;;;;;;21.60;10.37;;;;;;;;;;5095020;28;20512;-62
2023/10/03 10:53:40;;;;;;;19.53;10.57;;;;;;;;;;5095068;28;20453;-62
2023/10/03 10:56:09;;;;;;;13.77;8.93;;;;;;;;;;5095003;28;20888;-62
2023/10/03 10:58:45;;;;;;;14.60;8.53;;;;;;;;;;5094948;28;20446;-63
2023/10/03 11:01:13;;;;;;;17.73;9.77;;;;;;;;;;5094446;28;20986;-63
2023/10/03 11:03:43;;;;;;;16.40;9.53;;;;;;;;;;5094742;28;20478;-63
2023/10/03 11:06:15;;;;;;;20.00;9.67;;;;;;;;;;5094725;28;20450;-63
2023/10/03 11:08:45;;;;;;;15.37;10.47;;;;;;;;;;5094622;28;20474;-63
2023/10/03 11:11:12;;;;;;;15.50;9.47;;;;;;;;;;5094657;28;20443;-63
2023/10/03 11:13:45;;;;;;;15.03;9.20;;;;;;;;;;5094561;28;20445;-63
2023/10/03 11:16:12;;;;;;;14.80;8.70;;;;;;;;;;5094568;28;20488;-63
2023/10/03 11:18:42;;;;;;;13.97;9.53;;;;;;;;;;5094500;28;20448;-63
2023/10/03 11:21:11;;;;;;;11.17;8.00;;;;;;;;;;5094246;28;20945;-63
2023/10/03 11:23:38;;;;;;;14.40;8.40;;;;;;;;;;5094542;28;20570;-63
2023/10/03 11:26:05;;;;;;;14.70;8.50;;;;;;;;;;5094472;28;20530;-64
2023/10/03 11:28:45;;;;;;;16.67;9.03;;;;;;;;;;5094323;28;20947;-63
2023/10/03 11:31:13;;;;;;;19.20;8.97;;;;;;;;;;5094190;28;20485;-63
2023/10/03 11:33:45;;;;;;;13.13;8.53;;;;;;;;;;5094063;28;20813;-63
2023/10/03 11:36:14;;;;;;;14.97;8.87;;;;;;;;;;5094272;28;20465;-64
2023/10/03 11:38:45;;;;;;;14.40;9.03;;;;;;;;;;5094150;28;20474;-63
2023/10/03 11:41:12;;;;;;;15.50;8.30;;;;;;;;;;5094098;28;20442;-63
2023/10/03 11:43:44;;;;;;;12.57;8.93;;;;;;;;;;5093882;28;20478;-63
2023/10/03 11:46:11;;;;;;;13.80;9.00;;;;;;;;;;5093942;28;20450;-63
2023/10/03 11:48:39;;;;;;;16.53;8.80;;;;;;;;;;5093958;28;20449;-63
2023/10/03 11:51:06;;;;;;;12.07;8.07;;;;;;;;;;5093947;28;20447;-63
2023/10/03 11:53:34;;;;;;;16.20;8.73;;;;;;;;;;5093924;28;20446;-63
2023/10/03 11:56:01;;;;;;;13.83;8.60;;;;;;;;;;5093886;28;20483;-63
2023/10/03 11:58:28;;;;;;;13.60;8.33;;;;;;;;;;5093751;28;20496;-63
2023/10/03 12:00:55;;;;;;;13.70;8.50;;;;;;;;;;5093738;28;20831;-63
2023/10/03 12:03:22;;;;;;;15.40;8.30;;;;;;;;;;5093684;28;20573;-63
2023/10/03 12:05:52;;;;;;;13.80;8.60;;;;;;;;;;5093595;28;20529;-63
2023/10/03 12:08:19;;;;;;;12.83;9.23;;;;;;;;;;5093820;28;20495;-63
2023/10/03 12:10:48;;;;;;;15.50;8.07;;;;;;;;;;5093429;28;20493;-63
2023/10/03 12:13:15;;;;;;;13.67;8.40;;;;;;;;;;5092689;28;20446;-63
2023/10/03 12:15:45;;;;;;;10.77;7.90;;;;;;;;;;5093577;28;20493;-63
2023/10/03 12:18:15;;;;;;;12.80;8.87;;;;;;;;;;5093645;28;20855;-63
2023/10/03 12:20:44;;;;;;;12.33;9.07;;;;;;;;;;5093391;28;20787;-63
2023/10/03 12:23:11;;;;;;;13.87;8.60;;;;;;;;;;5093199;28;20470;-63
2023/10/03 12:25:37;;;;;;;15.20;8.50;;;;;;;;;;5093173;28;20442;-63
2023/10/03 12:28:07;;;;;;;14.40;8.27;;;;;;;;;;5092942;28;20558;-63
2023/10/03 12:30:34;;;;;;;15.00;8.47;;;;;;;;;;5093138;28;20449;-63
2023/10/03 12:33:02;;;;;;;13.13;8.27;;;;;;;;;;5093212;28;20438;-63
2023/10/03 12:35:29;;;;;;;14.73;8.00;;;;;;;;;;5093203;28;20476;-63
2023/10/03 12:37:58;;;;;;;14.90;8.53;;;;;;;;;;5093152;28;20439;-63
2023/10/03 12:40:27;;;;;;;13.13;8.67;;;;;;;;;;5092945;28;20926;-63
2023/10/03 12:42:54;;;;;;;15.50;9.17;;;;;;;;;;5093180;28;20971;-63
2023/10/03 12:45:22;;;;;;;11.30;7.90;;;;;;;;;;5092894;28;20929;-63
2023/10/03 12:47:53;;;;;;;13.23;8.00;;;;;;;;;;5092876;28;20933;-63
2023/10/03 12:50:24;;;;;;;10.50;7.47;;;;;;;;;;5092982;28;20833;-63
2023/10/03 12:52:51;;;;;;;10.97;8.00;;;;;;;;;;5093097;28;20453;-63
2023/10/03 12:55:18;;;;;;;11.13;7.90;;;;;;;;;;5093139;28;20480;-63
2023/10/03 12:57:46;;;;;;;11.70;8.73;;;;;;;;;;5093047;28;20529;-63
2023/10/03 13:00:15;;;;;;;13.33;7.00;;;;;;;;;;5093014;28;20480;-63
2023/10/03 13:02:44;;;;;;;13.10;7.80;;;;;;;;;;5092867;28;20451;-63
2023/10/03 13:05:12;;;;;;;11.47;7.77;;;;;;;;;;5092743;28;20511;-63
2023/10/03 13:07:39;;;;;;;9.63;7.50;;;;;;;;;;5092991;28;20818;-64
2023/10/03 13:10:07;;;;;;;12.50;8.67;;;;;;;;;;5092924;28;20450;-63
2023/10/03 13:12:34;;;;;;;9.23;7.00;;;;;;;;;;5092935;28;20495;-63
2023/10/03 13:15:03;;;;;;;11.40;7.60;;;;;;;;;;5092776;28;20530;-63
2023/10/03 13:17:29;;;;;;;14.27;7.93;;;;;;;;;;5092784;28;20445;-63
2023/10/03 13:19:59;;;;;;;12.33;8.77;;;;;;;;;;5092575;28;21008;-64
2023/10/03 13:22:27;;;;;;;13.60;7.93;;;;;;;;;;5092885;28;21033;-63
2023/10/03 13:24:55;;;;;;;14.63;7.60;;;;;;;;;;5096495;28;20482;-63
2023/10/03 13:27:22;;;;;;;11.50;7.70;;;;;;;;;;5096599;28;20443;-63
2023/10/03 13:29:51;;;;;;;11.40;6.90;;;;;;;;;;5096263;28;20474;-63
2023/10/03 13:32:18;;;;;;;10.23;7.87;;;;;;;;;;5096384;28;20539;-63
2023/10/03 13:34:46;;;;;;;11.87;7.23;;;;;;;;;;5096619;28;20454;-63
2023/10/03 13:37:15;;;;;;;9.47;7.20;;;;;;;;;;5096360;28;20500;-63
2023/10/03 13:39:42;;;;;;;13.53;8.30;;;;;;;;;;5096482;28;21098;-63
2023/10/03 13:42:09;;;;;;;11.10;7.23;;;;;;;;;;5096240;28;20537;-63
2023/10/03 13:44:37;;;;;;;11.63;7.00;;;;;;;;;;5096133;28;20844;-63
2023/10/03 13:47:04;;;;;;;13.17;7.77;;;;;;;;;;5096221;28;20446;-63
2023/10/03 13:49:31;;;;;;;11.73;7.63;;;;;;;;;;5096101;28;20793;-63
2023/10/03 13:52:00;;;;;;;10.83;7.93;;;;;;;;;;5096259;28;20465;-63
2023/10/03 13:54:33;;;;;;;10.17;7.47;;;;;;;;;;5096231;28;20511;-63
2023/10/03 13:57:01;;;;;;;9.67;7.40;;;;;;;;;;5096068;28;20443;-63
2023/10/03 13:59:28;;;;;;;12.60;7.90;;;;;;;;;;5095833;28;20448;-63
2023/10/03 14:01:55;;;;;;;13.90;8.70;;;;;;;;;;5096210;28;20489;-63
2023/10/03 14:04:22;;;;;;;12.37;7.90;;;;;;;;;;5096011;28;21026;-63
2023/10/03 14:06:49;;;;;;;10.23;7.27;;;;;;;;;;5095922;28;20482;-63
2023/10/03 14:09:18;;;;;;;9.70;6.90;;;;;;;;;;5095823;28;20515;-63
2023/10/03 14:11:47;;;;;;;9.87;6.63;;;;;;;;;;5095811;28;20533;-63
2023/10/03 14:14:14;;;;;;;13.33;7.90;;;;;;;;;;5095641;28;20504;-63
2023/10/03 14:16:41;;;;;;;10.87;7.77;;;;;;;;;;5095674;28;20531;-63
2023/10/03 14:19:08;;;;;;;9.87;6.87;;;;;;;;;;5095848;28;20798;-63
2023/10/03 14:21:35;;;;;;;10.00;6.70;;;;;;;;;;5095712;28;20542;-63
2023/10/03 14:24:02;;;;;;;11.67;7.63;;;;;;;;;;5095444;28;20554;-63
2023/10/03 14:26:29;;;;;;;8.23;6.77;;;;;;;;;;5095343;28;21032;-63
2023/10/03 14:28:57;;;;;;;9.80;7.13;;;;;;;;;;5095238;28;20481;-63
2023/10/03 14:31:24;;;;;;;11.03;5.90;;;;;;;;;;5095474;28;20856;-63
2023/10/03 14:33:51;;;;;;;9.33;5.90;;;;;;;;;;5095446;28;20484;-63
2023/10/03 14:36:18;;;;;;;11.67;7.40;;;;;;;;;;5094669;28;20529;-64
2023/10/03 14:38:45;;;;;;;9.00;6.63;;;;;;;;;;5095265;28;20520;-63
2023/10/03 14:41:14;;;;;;;9.83;6.63;;;;;;;;;;5095221;28;20790;-63